sensor_id;sensor_type;location;lat;lon;timestamp;P1;durP1;ratioP1;P2;durP2;ratioP2
31652;SDS011;18261;53.648;9.910;2022-09-27T00:00:56;3.47;;;2.90;;
31652;SDS011;18261;53.648;9.910;2022-09-27T00:03:22;3.70;;;2.30;;
31652;SDS011;18261;53.648;9.910;2022-09-27T00:05:48;5.80;;;2.58;;
31652;SDS011;18261;53.648;9.910;2022-09-27T00:08:14;4.68;;;2.88;;
31652;SDS011;18261;53.648;9.910;2022-09-27T00:13:17;4.28;;;2.20;;
31652;SDS011;18261;53.648;9.910;2022-09-27T00:15:43;3.70;;;2.50;;
31652;SDS011;18261;53.648;9.910;2022-09-27T00:18:09;4.80;;;2.63;;
31652;SDS011;18261;53.648;9.910;2022-09-27T00:20:35;4.88;;;2.90;;
31652;SDS011;18261;53.648;9.910;2022-09-27T00:23:01;4.00;;;2.50;;
31652;SDS011;18261;53.648;9.910;2022-09-27T00:25:27;5.97;;;2.63;;
31652;SDS011;18261;53.648;9.910;2022-09-27T00:27:53;3.90;;;2.50;;
31652;SDS011;18261;53.648;9.910;2022-09-27T00:30:19;5.50;;;2.75;;
31652;SDS011;18261;53.648;9.910;2022-09-27T00:32:44;2.88;;;2.15;;
31652;SDS011;18261;53.648;9.910;2022-09-27T00:35:10;2.45;;;2.08;;
31652;SDS011;18261;53.648;9.910;2022-09-27T00:37:36;2.72;;;2.30;;
31652;SDS011;18261;53.648;9.910;2022-09-27T00:40:02;9.60;;;2.42;;
31652;SDS011;18261;53.648;9.910;2022-09-27T00:42:28;2.65;;;2.10;;
31652;SDS011;18261;53.648;9.910;2022-09-27T00:44:58;3.33;;;2.35;;
31652;SDS011;18261;53.648;9.910;2022-09-27T00:47:29;4.53;;;2.60;;
31652;SDS011;18261;53.648;9.910;2022-09-27T00:52:29;3.97;;;2.40;;
31652;SDS011;18261;53.648;9.910;2022-09-27T00:55:01;4.43;;;2.05;;
31652;SDS011;18261;53.648;9.910;2022-09-27T00:57:27;5.20;;;2.30;;
31652;SDS011;18261;53.648;9.910;2022-09-27T00:59:57;2.55;;;2.03;;
31652;SDS011;18261;53.648;9.910;2022-09-27T01:02:25;3.88;;;2.22;;
31652;SDS011;18261;53.648;9.910;2022-09-27T01:04:51;4.20;;;2.40;;
31652;SDS011;18261;53.648;9.910;2022-09-27T01:07:17;5.45;;;2.55;;
31652;SDS011;18261;53.648;9.910;2022-09-27T01:09:43;4.45;;;2.50;;
31652;SDS011;18261;53.648;9.910;2022-09-27T01:14:48;4.28;;;2.15;;
31652;SDS011;18261;53.648;9.910;2022-09-27T01:25:11;2.47;;;1.75;;
31652;SDS011;18261;53.648;9.910;2022-09-27T01:27:48;2.33;;;1.80;;
31652;SDS011;18261;53.648;9.910;2022-09-27T01:31:05;2.25;;;1.65;;
31652;SDS011;18261;53.648;9.910;2022-09-27T01:33:13;2.75;;;1.80;;
31652;SDS011;18261;53.648;9.910;2022-09-27T01:35:47;4.65;;;1.67;;
31652;SDS011;18261;53.648;9.910;2022-09-27T01:40:45;5.32;;;2.03;;
31652;SDS011;18261;53.648;9.910;2022-09-27T01:43:20;2.97;;;1.48;;
31652;SDS011;18261;53.648;9.910;2022-09-27T01:45:50;2.55;;;1.40;;
31652;SDS011;18261;53.648;9.910;2022-09-27T01:48:20;1.95;;;1.50;;
31652;SDS011;18261;53.648;9.910;2022-09-27T01:50:49;2.90;;;1.70;;
31652;SDS011;18261;53.648;9.910;2022-09-27T01:53:18;7.25;;;1.80;;
31652;SDS011;18261;53.648;9.910;2022-09-27T01:55:44;2.95;;;1.65;;
31652;SDS011;18261;53.648;9.910;2022-09-27T01:58:12;2.60;;;1.80;;
31652;SDS011;18261;53.648;9.910;2022-09-27T02:00:40;2.40;;;1.60;;
31652;SDS011;18261;53.648;9.910;2022-09-27T02:03:18;3.20;;;1.58;;
31652;SDS011;18261;53.648;9.910;2022-09-27T02:05:46;3.83;;;1.95;;
31652;SDS011;18261;53.648;9.910;2022-09-27T02:08:17;3.60;;;1.67;;
31652;SDS011;18261;53.648;9.910;2022-09-27T02:10:45;3.38;;;1.90;;
31652;SDS011;18261;53.648;9.910;2022-09-27T02:13:18;3.03;;;1.70;;
31652;SDS011;18261;53.648;9.910;2022-09-27T02:18:27;2.47;;;1.70;;
31652;SDS011;18261;53.648;9.910;2022-09-27T02:20:55;2.72;;;1.83;;
31652;SDS011;18261;53.648;9.910;2022-09-27T02:23:37;1.73;;;1.33;;
31652;SDS011;18261;53.648;9.910;2022-09-27T02:28:32;2.97;;;1.67;;
31652;SDS011;18261;53.648;9.910;2022-09-27T02:31:00;2.05;;;1.45;;
31652;SDS011;18261;53.648;9.910;2022-09-27T02:33:37;1.90;;;1.60;;
31652;SDS011;18261;53.648;9.910;2022-09-27T02:36:05;3.00;;;1.73;;
31652;SDS011;18261;53.648;9.910;2022-09-27T02:38:33;3.83;;;2.40;;
31652;SDS011;18261;53.648;9.910;2022-09-27T02:40:58;2.72;;;2.00;;
31652;SDS011;18261;53.648;9.910;2022-09-27T02:43:26;3.08;;;1.80;;
31652;SDS011;18261;53.648;9.910;2022-09-27T02:51:31;5.15;;;1.88;;
31652;SDS011;18261;53.648;9.910;2022-09-27T02:54:10;3.78;;;1.90;;
31652;SDS011;18261;53.648;9.910;2022-09-27T02:59:10;4.57;;;1.73;;
31652;SDS011;18261;53.648;9.910;2022-09-27T03:04:17;4.25;;;2.22;;
31652;SDS011;18261;53.648;9.910;2022-09-27T03:06:47;3.47;;;1.98;;
31652;SDS011;18261;53.648;9.910;2022-09-27T03:09:21;3.28;;;2.08;;
31652;SDS011;18261;53.648;9.910;2022-09-27T03:11:47;3.17;;;1.97;;
31652;SDS011;18261;53.648;9.910;2022-09-27T03:14:13;2.63;;;1.75;;
31652;SDS011;18261;53.648;9.910;2022-09-27T03:16:39;3.05;;;1.95;;
31652;SDS011;18261;53.648;9.910;2022-09-27T03:19:05;2.20;;;1.85;;
31652;SDS011;18261;53.648;9.910;2022-09-27T03:21:31;4.22;;;2.60;;
31652;SDS011;18261;53.648;9.910;2022-09-27T03:23:57;2.78;;;1.83;;
31652;SDS011;18261;53.648;9.910;2022-09-27T03:26:23;3.25;;;2.05;;
31652;SDS011;18261;53.648;9.910;2022-09-27T03:28:49;2.00;;;1.60;;
31652;SDS011;18261;53.648;9.910;2022-09-27T03:31:15;4.28;;;3.10;;
31652;SDS011;18261;53.648;9.910;2022-09-27T03:33:41;2.00;;;1.70;;
31652;SDS011;18261;53.648;9.910;2022-09-27T03:36:07;2.47;;;1.67;;
31652;SDS011;18261;53.648;9.910;2022-09-27T03:38:33;3.72;;;1.70;;
31652;SDS011;18261;53.648;9.910;2022-09-27T03:40:59;2.30;;;1.67;;
31652;SDS011;18261;53.648;9.910;2022-09-27T03:43:24;2.72;;;1.80;;
31652;SDS011;18261;53.648;9.910;2022-09-27T03:45:50;4.53;;;1.80;;
31652;SDS011;18261;53.648;9.910;2022-09-27T03:48:17;3.17;;;2.05;;
31652;SDS011;18261;53.648;9.910;2022-09-27T03:50:42;1.85;;;1.75;;
31652;SDS011;18261;53.648;9.910;2022-09-27T03:53:08;2.30;;;1.83;;
31652;SDS011;18261;53.648;9.910;2022-09-27T03:55:34;5.32;;;2.28;;
31652;SDS011;18261;53.648;9.910;2022-09-27T03:58:00;3.17;;;2.10;;
31652;SDS011;18261;53.648;9.910;2022-09-27T04:00:26;2.60;;;2.10;;
31652;SDS011;18261;53.648;9.910;2022-09-27T04:02:52;3.17;;;2.10;;
31652;SDS011;18261;53.648;9.910;2022-09-27T04:05:18;2.92;;;2.25;;
31652;SDS011;18261;53.648;9.910;2022-09-27T04:07:45;3.17;;;2.65;;
31652;SDS011;18261;53.648;9.910;2022-09-27T04:10:12;3.38;;;2.45;;
31652;SDS011;18261;53.648;9.910;2022-09-27T04:12:41;4.35;;;2.45;;
31652;SDS011;18261;53.648;9.910;2022-09-27T04:15:07;5.22;;;3.50;;
31652;SDS011;18261;53.648;9.910;2022-09-27T04:17:36;4.35;;;2.85;;
31652;SDS011;18261;53.648;9.910;2022-09-27T04:20:02;3.13;;;2.78;;
31652;SDS011;18261;53.648;9.910;2022-09-27T04:22:28;3.45;;;3.15;;
31652;SDS011;18261;53.648;9.910;2022-09-27T04:24:54;7.32;;;3.70;;
31652;SDS011;18261;53.648;9.910;2022-09-27T04:27:20;6.25;;;3.80;;
31652;SDS011;18261;53.648;9.910;2022-09-27T04:29:46;3.60;;;3.30;;
31652;SDS011;18261;53.648;9.910;2022-09-27T04:32:13;9.30;;;6.72;;
31652;SDS011;18261;53.648;9.910;2022-09-27T04:34:39;9.40;;;7.15;;
31652;SDS011;18261;53.648;9.910;2022-09-27T04:37:24;8.10;;;4.30;;
31652;SDS011;18261;53.648;9.910;2022-09-27T04:39:50;5.97;;;4.53;;
31652;SDS011;18261;53.648;9.910;2022-09-27T04:42:16;4.10;;;3.53;;
31652;SDS011;18261;53.648;9.910;2022-09-27T04:44:42;7.72;;;4.00;;
31652;SDS011;18261;53.648;9.910;2022-09-27T04:47:08;4.05;;;3.65;;
31652;SDS011;18261;53.648;9.910;2022-09-27T04:49:34;6.43;;;3.97;;
31652;SDS011;18261;53.648;9.910;2022-09-27T04:52:00;5.95;;;4.00;;
31652;SDS011;18261;53.648;9.910;2022-09-27T04:54:26;5.40;;;4.07;;
31652;SDS011;18261;53.648;9.910;2022-09-27T04:56:53;5.15;;;4.30;;
31652;SDS011;18261;53.648;9.910;2022-09-27T04:59:19;5.38;;;3.88;;
31652;SDS011;18261;53.648;9.910;2022-09-27T05:01:45;10.25;;;7.10;;
31652;SDS011;18261;53.648;9.910;2022-09-27T05:04:11;12.23;;;8.27;;
31652;SDS011;18261;53.648;9.910;2022-09-27T05:06:37;6.28;;;4.75;;
31652;SDS011;18261;53.648;9.910;2022-09-27T05:09:03;6.03;;;5.07;;
31652;SDS011;18261;53.648;9.910;2022-09-27T05:11:29;9.52;;;5.90;;
31652;SDS011;18261;53.648;9.910;2022-09-27T05:13:55;9.48;;;6.53;;
31652;SDS011;18261;53.648;9.910;2022-09-27T05:16:21;14.98;;;7.38;;
31652;SDS011;18261;53.648;9.910;2022-09-27T05:18:48;9.15;;;7.00;;
31652;SDS011;18261;53.648;9.910;2022-09-27T05:21:14;10.48;;;8.02;;
31652;SDS011;18261;53.648;9.910;2022-09-27T05:23:40;9.48;;;6.68;;
31652;SDS011;18261;53.648;9.910;2022-09-27T05:26:07;9.95;;;7.60;;
31652;SDS011;18261;53.648;9.910;2022-09-27T05:28:33;13.68;;;8.40;;
31652;SDS011;18261;53.648;9.910;2022-09-27T05:31:02;11.15;;;8.25;;
31652;SDS011;18261;53.648;9.910;2022-09-27T05:33:28;9.80;;;7.50;;
31652;SDS011;18261;53.648;9.910;2022-09-27T05:35:54;9.45;;;7.78;;
31652;SDS011;18261;53.648;9.910;2022-09-27T05:38:21;11.65;;;7.97;;
31652;SDS011;18261;53.648;9.910;2022-09-27T05:40:47;13.10;;;8.27;;
31652;SDS011;18261;53.648;9.910;2022-09-27T05:43:15;13.98;;;8.02;;
31652;SDS011;18261;53.648;9.910;2022-09-27T05:45:41;12.90;;;8.98;;
31652;SDS011;18261;53.648;9.910;2022-09-27T05:48:08;26.17;;;17.13;;
31652;SDS011;18261;53.648;9.910;2022-09-27T05:50:34;21.33;;;14.80;;
31652;SDS011;18261;53.648;9.910;2022-09-27T05:53:00;14.32;;;10.20;;
31652;SDS011;18261;53.648;9.910;2022-09-27T05:55:26;12.48;;;9.98;;
31652;SDS011;18261;53.648;9.910;2022-09-27T05:57:54;14.73;;;9.98;;
31652;SDS011;18261;53.648;9.910;2022-09-27T06:00:20;14.77;;;10.50;;
31652;SDS011;18261;53.648;9.910;2022-09-27T06:02:51;14.55;;;11.25;;
31652;SDS011;18261;53.648;9.910;2022-09-27T06:05:17;13.60;;;11.10;;
31652;SDS011;18261;53.648;9.910;2022-09-27T06:07:43;21.40;;;12.77;;
31652;SDS011;18261;53.648;9.910;2022-09-27T06:10:10;18.30;;;12.95;;
31652;SDS011;18261;53.648;9.910;2022-09-27T06:12:36;15.50;;;12.02;;
31652;SDS011;18261;53.648;9.910;2022-09-27T06:15:02;18.20;;;12.10;;
31652;SDS011;18261;53.648;9.910;2022-09-27T06:17:28;15.52;;;11.57;;
31652;SDS011;18261;53.648;9.910;2022-09-27T06:19:54;22.25;;;12.68;;
31652;SDS011;18261;53.648;9.910;2022-09-27T06:22:22;18.90;;;13.30;;
31652;SDS011;18261;53.648;9.910;2022-09-27T06:24:48;12.93;;;9.75;;
31652;SDS011;18261;53.648;9.910;2022-09-27T06:27:14;14.95;;;8.15;;
31652;SDS011;18261;53.648;9.910;2022-09-27T06:29:42;13.90;;;8.85;;
31652;SDS011;18261;53.648;9.910;2022-09-27T06:32:08;14.18;;;8.25;;
31652;SDS011;18261;53.648;9.910;2022-09-27T06:34:35;14.00;;;7.75;;
31652;SDS011;18261;53.648;9.910;2022-09-27T06:37:01;12.93;;;8.00;;
31652;SDS011;18261;53.648;9.910;2022-09-27T06:39:29;13.38;;;8.60;;
31652;SDS011;18261;53.648;9.910;2022-09-27T06:42:00;14.38;;;7.88;;
31652;SDS011;18261;53.648;9.910;2022-09-27T06:44:26;16.52;;;9.68;;
31652;SDS011;18261;53.648;9.910;2022-09-27T06:46:52;25.67;;;11.25;;
31652;SDS011;18261;53.648;9.910;2022-09-27T06:49:19;21.40;;;10.52;;
31652;SDS011;18261;53.648;9.910;2022-09-27T06:51:46;14.55;;;8.90;;
31652;SDS011;18261;53.648;9.910;2022-09-27T06:54:12;11.18;;;7.30;;
31652;SDS011;18261;53.648;9.910;2022-09-27T06:56:38;16.42;;;7.35;;
31652;SDS011;18261;53.648;9.910;2022-09-27T06:59:04;16.40;;;6.75;;
31652;SDS011;18261;53.648;9.910;2022-09-27T07:01:49;12.90;;;5.70;;
31652;SDS011;18261;53.648;9.910;2022-09-27T07:04:16;10.00;;;4.07;;
31652;SDS011;18261;53.648;9.910;2022-09-27T07:06:43;13.57;;;4.32;;
31652;SDS011;18261;53.648;9.910;2022-09-27T07:09:09;14.73;;;6.18;;
31652;SDS011;18261;53.648;9.910;2022-09-27T07:11:35;9.80;;;3.28;;
31652;SDS011;18261;53.648;9.910;2022-09-27T07:14:01;9.00;;;2.80;;
31652;SDS011;18261;53.648;9.910;2022-09-27T07:16:28;11.07;;;3.15;;
31652;SDS011;18261;53.648;9.910;2022-09-27T07:18:55;7.07;;;2.50;;
31652;SDS011;18261;53.648;9.910;2022-09-27T07:21:24;11.38;;;3.25;;
31652;SDS011;18261;53.648;9.910;2022-09-27T07:23:51;11.93;;;2.40;;
31652;SDS011;18261;53.648;9.910;2022-09-27T07:26:17;7.72;;;2.67;;
31652;SDS011;18261;53.648;9.910;2022-09-27T07:28:43;7.65;;;2.10;;
31652;SDS011;18261;53.648;9.910;2022-09-27T07:31:10;10.25;;;2.10;;
31652;SDS011;18261;53.648;9.910;2022-09-27T07:33:39;8.43;;;2.20;;
31652;SDS011;18261;53.648;9.910;2022-09-27T07:36:06;6.32;;;2.05;;
31652;SDS011;18261;53.648;9.910;2022-09-27T07:38:32;8.20;;;2.05;;
31652;SDS011;18261;53.648;9.910;2022-09-27T07:41:03;7.32;;;2.00;;
31652;SDS011;18261;53.648;9.910;2022-09-27T07:43:29;12.23;;;2.33;;
31652;SDS011;18261;53.648;9.910;2022-09-27T07:45:56;6.15;;;1.33;;
31652;SDS011;18261;53.648;9.910;2022-09-27T07:48:22;5.68;;;1.80;;
31652;SDS011;18261;53.648;9.910;2022-09-27T07:50:48;7.30;;;1.58;;
31652;SDS011;18261;53.648;9.910;2022-09-27T07:53:14;8.25;;;1.92;;
31652;SDS011;18261;53.648;9.910;2022-09-27T07:55:40;5.45;;;1.60;;
31652;SDS011;18261;53.648;9.910;2022-09-27T07:58:08;5.35;;;1.60;;
31652;SDS011;18261;53.648;9.910;2022-09-27T08:00:34;4.45;;;2.10;;
31652;SDS011;18261;53.648;9.910;2022-09-27T08:03:04;15.73;;;4.78;;
31652;SDS011;18261;53.648;9.910;2022-09-27T08:05:31;9.70;;;2.33;;
31652;SDS011;18261;53.648;9.910;2022-09-27T08:07:58;7.95;;;1.95;;
31652;SDS011;18261;53.648;9.910;2022-09-27T08:10:24;8.05;;;2.60;;
31652;SDS011;18261;53.648;9.910;2022-09-27T08:12:57;9.38;;;2.47;;
31652;SDS011;18261;53.648;9.910;2022-09-27T08:15:23;8.98;;;2.88;;
31652;SDS011;18261;53.648;9.910;2022-09-27T08:17:49;7.95;;;1.55;;
31652;SDS011;18261;53.648;9.910;2022-09-27T08:20:15;11.15;;;3.38;;
31652;SDS011;18261;53.648;9.910;2022-09-27T08:22:41;10.48;;;3.25;;
31652;SDS011;18261;53.648;9.910;2022-09-27T08:25:08;4.78;;;1.45;;
31652;SDS011;18261;53.648;9.910;2022-09-27T08:27:34;7.05;;;1.48;;
31652;SDS011;18261;53.648;9.910;2022-09-27T08:30:00;6.65;;;1.83;;
31652;SDS011;18261;53.648;9.910;2022-09-27T08:32:27;6.13;;;1.13;;
31652;SDS011;18261;53.648;9.910;2022-09-27T08:34:54;8.30;;;2.47;;
31652;SDS011;18261;53.648;9.910;2022-09-27T08:37:20;8.70;;;2.03;;
31652;SDS011;18261;53.648;9.910;2022-09-27T08:39:46;27.00;;;13.80;;
31652;SDS011;18261;53.648;9.910;2022-09-27T08:47:24;10.02;;;3.78;;
31652;SDS011;18261;53.648;9.910;2022-09-27T08:52:40;3.63;;;1.60;;
31652;SDS011;18261;53.648;9.910;2022-09-27T08:55:09;3.58;;;1.60;;
31652;SDS011;18261;53.648;9.910;2022-09-27T08:57:42;3.03;;;1.05;;
31652;SDS011;18261;53.648;9.910;2022-09-27T09:00:11;7.07;;;1.80;;
31652;SDS011;18261;53.648;9.910;2022-09-27T09:02:37;3.78;;;1.52;;
31652;SDS011;18261;53.648;9.910;2022-09-27T09:05:07;4.82;;;1.10;;
31652;SDS011;18261;53.648;9.910;2022-09-27T09:15:54;3.90;;;1.05;;
31652;SDS011;18261;53.648;9.910;2022-09-27T09:18:39;6.10;;;2.20;;
31652;SDS011;18261;53.648;9.910;2022-09-27T09:21:10;4.03;;;1.20;;
31652;SDS011;18261;53.648;9.910;2022-09-27T09:33:51;4.75;;;1.42;;
31652;SDS011;18261;53.648;9.910;2022-09-27T09:38:55;3.45;;;1.23;;
31652;SDS011;18261;53.648;9.910;2022-09-27T09:43:58;4.95;;;1.50;;
31652;SDS011;18261;53.648;9.910;2022-09-27T09:46:32;3.50;;;1.35;;
31652;SDS011;18261;53.648;9.910;2022-09-27T09:49:02;4.43;;;2.25;;
31652;SDS011;18261;53.648;9.910;2022-09-27T09:51:32;6.25;;;3.00;;
31652;SDS011;18261;53.648;9.910;2022-09-27T09:54:05;6.20;;;3.05;;
31652;SDS011;18261;53.648;9.910;2022-09-27T09:56:33;6.45;;;2.58;;
31652;SDS011;18261;53.648;9.910;2022-09-27T09:59:12;6.35;;;2.90;;
31652;SDS011;18261;53.648;9.910;2022-09-27T10:01:43;6.63;;;2.83;;
31652;SDS011;18261;53.648;9.910;2022-09-27T10:04:11;8.48;;;3.22;;
31652;SDS011;18261;53.648;9.910;2022-09-27T10:06:40;7.00;;;2.72;;
31652;SDS011;18261;53.648;9.910;2022-09-27T10:09:07;10.75;;;3.45;;
31652;SDS011;18261;53.648;9.910;2022-09-27T10:11:44;8.63;;;2.72;;
31652;SDS011;18261;53.648;9.910;2022-09-27T10:14:11;10.63;;;2.83;;
31652;SDS011;18261;53.648;9.910;2022-09-27T10:16:38;4.38;;;1.65;;
31652;SDS011;18261;53.648;9.910;2022-09-27T10:19:06;4.50;;;1.42;;
31652;SDS011;18261;53.648;9.910;2022-09-27T10:21:33;6.43;;;1.42;;
31652;SDS011;18261;53.648;9.910;2022-09-27T10:24:08;2.28;;;1.10;;
31652;SDS011;18261;53.648;9.910;2022-09-27T10:26:35;3.97;;;2.35;;
31652;SDS011;18261;53.648;9.910;2022-09-27T10:29:13;6.45;;;2.33;;
31652;SDS011;18261;53.648;9.910;2022-09-27T10:31:40;5.38;;;1.73;;
31652;SDS011;18261;53.648;9.910;2022-09-27T10:34:16;2.47;;;0.98;;
31652;SDS011;18261;53.648;9.910;2022-09-27T10:36:42;1.55;;;0.95;;
31652;SDS011;18261;53.648;9.910;2022-09-27T10:39:08;3.40;;;1.25;;
31652;SDS011;18261;53.648;9.910;2022-09-27T10:41:44;1.52;;;1.08;;
31652;SDS011;18261;53.648;9.910;2022-09-27T10:46:43;4.25;;;1.58;;
31652;SDS011;18261;53.648;9.910;2022-09-27T10:49:10;2.42;;;1.23;;
31652;SDS011;18261;53.648;9.910;2022-09-27T10:51:41;2.75;;;1.20;;
31652;SDS011;18261;53.648;9.910;2022-09-27T10:54:18;4.22;;;1.13;;
31652;SDS011;18261;53.648;9.910;2022-09-27T10:56:44;3.25;;;1.08;;
31652;SDS011;18261;53.648;9.910;2022-09-27T10:59:19;3.50;;;1.30;;
31652;SDS011;18261;53.648;9.910;2022-09-27T11:01:46;7.53;;;2.90;;
31652;SDS011;18261;53.648;9.910;2022-09-27T11:04:20;4.25;;;1.10;;
31652;SDS011;18261;53.648;9.910;2022-09-27T11:06:47;2.90;;;1.10;;
31652;SDS011;18261;53.648;9.910;2022-09-27T11:09:18;2.25;;;1.23;;
31652;SDS011;18261;53.648;9.910;2022-09-27T11:11:47;1.73;;;0.98;;
31652;SDS011;18261;53.648;9.910;2022-09-27T11:14:22;5.10;;;1.45;;
31652;SDS011;18261;53.648;9.910;2022-09-27T11:17:05;2.28;;;0.95;;
31652;SDS011;18261;53.648;9.910;2022-09-27T11:19:35;3.47;;;1.70;;
31652;SDS011;18261;53.648;9.910;2022-09-27T11:30:07;3.17;;;0.90;;
31652;SDS011;18261;53.648;9.910;2022-09-27T11:32:48;2.42;;;1.00;;
31652;SDS011;18261;53.648;9.910;2022-09-27T11:35:23;3.50;;;1.52;;
31652;SDS011;18261;53.648;9.910;2022-09-27T11:43:13;3.22;;;1.10;;
31652;SDS011;18261;53.648;9.910;2022-09-27T11:48:16;1.92;;;0.70;;
31652;SDS011;18261;53.648;9.910;2022-09-27T11:50:47;2.40;;;0.98;;
31652;SDS011;18261;53.648;9.910;2022-09-27T11:58:48;4.07;;;1.20;;
31652;SDS011;18261;53.648;9.910;2022-09-27T12:09:42;3.97;;;1.00;;
31652;SDS011;18261;53.648;9.910;2022-09-27T12:12:12;3.78;;;1.27;;
31652;SDS011;18261;53.648;9.910;2022-09-27T12:14:43;4.03;;;0.70;;
31652;SDS011;18261;53.648;9.910;2022-09-27T12:17:11;3.67;;;1.02;;
31652;SDS011;18261;53.648;9.910;2022-09-27T12:19:40;4.53;;;1.10;;
31652;SDS011;18261;53.648;9.910;2022-09-27T12:22:11;2.15;;;1.00;;
31652;SDS011;18261;53.648;9.910;2022-09-27T12:24:38;3.38;;;1.15;;
31652;SDS011;18261;53.648;9.910;2022-09-27T12:27:08;2.65;;;0.85;;
31652;SDS011;18261;53.648;9.910;2022-09-27T12:29:38;3.58;;;1.20;;
31652;SDS011;18261;53.648;9.910;2022-09-27T12:34:45;5.53;;;2.88;;
31652;SDS011;18261;53.648;9.910;2022-09-27T12:39:47;3.63;;;0.90;;
31652;SDS011;18261;53.648;9.910;2022-09-27T12:42:19;3.30;;;0.80;;
31652;SDS011;18261;53.648;9.910;2022-09-27T12:44:46;6.88;;;0.93;;
31652;SDS011;18261;53.648;9.910;2022-09-27T12:47:16;4.10;;;0.80;;
31652;SDS011;18261;53.648;9.910;2022-09-27T12:49:58;3.92;;;1.20;;
31652;SDS011;18261;53.648;9.910;2022-09-27T12:52:29;3.58;;;1.00;;
31652;SDS011;18261;53.648;9.910;2022-09-27T13:00:24;2.40;;;0.70;;
31652;SDS011;18261;53.648;9.910;2022-09-27T13:02:59;2.10;;;0.80;;
31652;SDS011;18261;53.648;9.910;2022-09-27T13:05:39;3.40;;;0.80;;
31652;SDS011;18261;53.648;9.910;2022-09-27T13:13:13;3.33;;;0.80;;
31652;SDS011;18261;53.648;9.910;2022-09-27T13:15:41;4.57;;;1.00;;
31652;SDS011;18261;53.648;9.910;2022-09-27T13:18:28;2.53;;;0.65;;
31652;SDS011;18261;53.648;9.910;2022-09-27T13:20:55;2.75;;;0.60;;
31652;SDS011;18261;53.648;9.910;2022-09-27T13:25:50;3.55;;;0.93;;
31652;SDS011;18261;53.648;9.910;2022-09-27T13:31:02;6.28;;;1.98;;
31652;SDS011;18261;53.648;9.910;2022-09-27T13:36:27;1.30;;;0.85;;
31652;SDS011;18261;53.648;9.910;2022-09-27T13:47:25;11.40;;;6.57;;
31652;SDS011;18261;53.648;9.910;2022-09-27T13:49:50;6.35;;;2.10;;
31652;SDS011;18261;53.648;9.910;2022-09-27T13:52:34;7.90;;;2.42;;
31652;SDS011;18261;53.648;9.910;2022-09-27T13:55:02;2.20;;;1.00;;
31652;SDS011;18261;53.648;9.910;2022-09-27T14:00:14;7.55;;;1.30;;
31652;SDS011;18261;53.648;9.910;2022-09-27T14:02:45;4.88;;;1.00;;
31652;SDS011;18261;53.648;9.910;2022-09-27T14:05:17;6.90;;;1.02;;
31652;SDS011;18261;53.648;9.910;2022-09-27T14:07:44;7.03;;;1.30;;
31652;SDS011;18261;53.648;9.910;2022-09-27T14:10:11;8.35;;;2.65;;
31652;SDS011;18261;53.648;9.910;2022-09-27T14:12:38;4.85;;;0.85;;
31652;SDS011;18261;53.648;9.910;2022-09-27T14:15:09;4.95;;;1.23;;
31652;SDS011;18261;53.648;9.910;2022-09-27T14:17:41;4.35;;;1.23;;
31652;SDS011;18261;53.648;9.910;2022-09-27T14:22:56;3.53;;;1.05;;
31652;SDS011;18261;53.648;9.910;2022-09-27T14:25:22;20.05;;;11.23;;
31652;SDS011;18261;53.648;9.910;2022-09-27T14:27:49;3.70;;;1.05;;
31652;SDS011;18261;53.648;9.910;2022-09-27T14:32:46;6.60;;;1.13;;
31652;SDS011;18261;53.648;9.910;2022-09-27T14:35:14;5.10;;;1.00;;
31652;SDS011;18261;53.648;9.910;2022-09-27T14:37:59;5.63;;;1.48;;
31652;SDS011;18261;53.648;9.910;2022-09-27T14:40:25;3.83;;;1.23;;
31652;SDS011;18261;53.648;9.910;2022-09-27T14:42:52;3.85;;;0.90;;
31652;SDS011;18261;53.648;9.910;2022-09-27T14:45:26;6.00;;;1.58;;
31652;SDS011;18261;53.648;9.910;2022-09-27T14:47:54;6.50;;;1.88;;
31652;SDS011;18261;53.648;9.910;2022-09-27T14:50:22;5.63;;;1.20;;
31652;SDS011;18261;53.648;9.910;2022-09-27T14:52:49;4.68;;;1.30;;
31652;SDS011;18261;53.648;9.910;2022-09-27T14:55:20;4.10;;;0.93;;
31652;SDS011;18261;53.648;9.910;2022-09-27T14:57:48;7.00;;;1.30;;
31652;SDS011;18261;53.648;9.910;2022-09-27T15:00:19;5.53;;;2.00;;
31652;SDS011;18261;53.648;9.910;2022-09-27T15:02:46;9.13;;;1.88;;
31652;SDS011;18261;53.648;9.910;2022-09-27T15:05:14;3.97;;;1.30;;
31652;SDS011;18261;53.648;9.910;2022-09-27T15:07:41;5.13;;;2.28;;
31652;SDS011;18261;53.648;9.910;2022-09-27T15:10:11;9.65;;;3.90;;
31652;SDS011;18261;53.648;9.910;2022-09-27T15:12:38;14.60;;;7.72;;
31652;SDS011;18261;53.648;9.910;2022-09-27T15:15:05;5.38;;;1.60;;
31652;SDS011;18261;53.648;9.910;2022-09-27T15:17:32;5.75;;;1.80;;
31652;SDS011;18261;53.648;9.910;2022-09-27T15:20:20;7.63;;;2.58;;
31652;SDS011;18261;53.648;9.910;2022-09-27T15:22:46;3.45;;;0.90;;
31652;SDS011;18261;53.648;9.910;2022-09-27T15:25:29;5.72;;;1.10;;
31652;SDS011;18261;53.648;9.910;2022-09-27T15:27:59;4.45;;;1.40;;
31652;SDS011;18261;53.648;9.910;2022-09-27T15:30:50;2.65;;;0.80;;
31652;SDS011;18261;53.648;9.910;2022-09-27T15:35:47;3.53;;;1.10;;
31652;SDS011;18261;53.648;9.910;2022-09-27T15:43:26;5.95;;;2.15;;
31652;SDS011;18261;53.648;9.910;2022-09-27T15:45:56;7.50;;;2.33;;
31652;SDS011;18261;53.648;9.910;2022-09-27T15:48:25;4.35;;;1.50;;
31652;SDS011;18261;53.648;9.910;2022-09-27T15:50:52;5.38;;;1.73;;
31652;SDS011;18261;53.648;9.910;2022-09-27T15:56:00;9.13;;;1.90;;
31652;SDS011;18261;53.648;9.910;2022-09-27T15:58:26;8.70;;;1.65;;
31652;SDS011;18261;53.648;9.910;2022-09-27T16:00:53;5.50;;;1.98;;
31652;SDS011;18261;53.648;9.910;2022-09-27T16:03:20;7.13;;;1.60;;
31652;SDS011;18261;53.648;9.910;2022-09-27T16:05:46;9.30;;;3.33;;
31652;SDS011;18261;53.648;9.910;2022-09-27T16:08:12;5.68;;;2.13;;
31652;SDS011;18261;53.648;9.910;2022-09-27T16:10:39;7.15;;;1.58;;
31652;SDS011;18261;53.648;9.910;2022-09-27T16:13:05;11.52;;;3.55;;
31652;SDS011;18261;53.648;9.910;2022-09-27T16:15:31;14.82;;;4.63;;
31652;SDS011;18261;53.648;9.910;2022-09-27T16:17:57;5.18;;;1.63;;
31652;SDS011;18261;53.648;9.910;2022-09-27T16:20:25;5.47;;;1.60;;
31652;SDS011;18261;53.648;9.910;2022-09-27T16:22:51;5.05;;;1.58;;
31652;SDS011;18261;53.648;9.910;2022-09-27T16:25:18;8.77;;;2.30;;
31652;SDS011;18261;53.648;9.910;2022-09-27T16:27:44;13.00;;;4.30;;
31652;SDS011;18261;53.648;9.910;2022-09-27T16:30:10;9.00;;;3.38;;
31652;SDS011;18261;53.648;9.910;2022-09-27T16:32:40;9.30;;;2.30;;
31652;SDS011;18261;53.648;9.910;2022-09-27T16:35:06;10.15;;;2.38;;
31652;SDS011;18261;53.648;9.910;2022-09-27T16:37:32;6.57;;;2.72;;
31652;SDS011;18261;53.648;9.910;2022-09-27T16:39:58;6.25;;;1.80;;
31652;SDS011;18261;53.648;9.910;2022-09-27T16:42:24;7.82;;;3.72;;
31652;SDS011;18261;53.648;9.910;2022-09-27T16:44:51;16.67;;;8.02;;
31652;SDS011;18261;53.648;9.910;2022-09-27T16:47:17;11.32;;;5.22;;
31652;SDS011;18261;53.648;9.910;2022-09-27T16:49:43;7.82;;;3.30;;
31652;SDS011;18261;53.648;9.910;2022-09-27T16:52:29;5.18;;;2.28;;
31652;SDS011;18261;53.648;9.910;2022-09-27T16:54:58;5.78;;;2.35;;
31652;SDS011;18261;53.648;9.910;2022-09-27T16:57:25;11.95;;;3.03;;
31652;SDS011;18261;53.648;9.910;2022-09-27T16:59:54;6.70;;;2.45;;
31652;SDS011;18261;53.648;9.910;2022-09-27T17:02:21;10.75;;;4.28;;
31652;SDS011;18261;53.648;9.910;2022-09-27T17:04:48;10.77;;;3.88;;
31652;SDS011;18261;53.648;9.910;2022-09-27T17:07:14;5.25;;;1.92;;
31652;SDS011;18261;53.648;9.910;2022-09-27T17:09:40;6.03;;;1.80;;
31652;SDS011;18261;53.648;9.910;2022-09-27T17:12:06;5.18;;;2.10;;
31652;SDS011;18261;53.648;9.910;2022-09-27T17:14:32;10.38;;;2.13;;
31652;SDS011;18261;53.648;9.910;2022-09-27T17:16:58;10.10;;;2.55;;
31652;SDS011;18261;53.648;9.910;2022-09-27T17:19:24;11.18;;;4.72;;
31652;SDS011;18261;53.648;9.910;2022-09-27T17:21:50;18.35;;;8.25;;